createdAt,value
2017-12-16T00:00:39.711Z,0
2017-12-16T00:01:20.239Z,0
2017-12-16T00:02:00.759Z,0
2017-12-16T00:02:41.280Z,0
2017-12-16T00:03:21.805Z,0
2017-12-16T00:04:02.318Z,0
2017-12-16T00:04:42.861Z,0
2017-12-16T00:05:23.375Z,0
2017-12-16T00:06:03.904Z,0
2017-12-16T00:06:44.430Z,0
2017-12-16T00:07:24.959Z,0
2017-12-16T00:08:05.496Z,0
2017-12-16T00:08:46.021Z,0
2017-12-16T00:09:26.531Z,0
2017-12-16T00:10:07.047Z,0
2017-12-16T00:10:47.596Z,0
2017-12-16T00:11:28.136Z,0
2017-12-16T00:12:08.656Z,0
2017-12-16T00:12:49.181Z,0
2017-12-16T00:13:29.699Z,0
2017-12-16T00:14:10.230Z,0
2017-12-16T00:14:50.740Z,0
2017-12-16T00:15:31.280Z,0
2017-12-16T00:16:11.816Z,0
2017-12-16T00:16:52.334Z,0
2017-12-16T00:17:32.886Z,0
2017-12-16T00:18:13.378Z,0
2017-12-16T00:18:53.911Z,0
2017-12-16T00:19:34.449Z,0
2017-12-16T00:20:14.972Z,0
2017-12-16T00:20:55.514Z,0
2017-12-16T00:21:36.045Z,0
2017-12-16T00:22:16.585Z,0
2017-12-16T00:22:57.113Z,0
2017-12-16T00:23:37.637Z,0
2017-12-16T00:24:18.151Z,0
2017-12-16T00:24:58.675Z,0
2017-12-16T00:25:39.222Z,0
2017-12-16T00:26:19.715Z,0
2017-12-16T00:27:00.246Z,0
2017-12-16T00:27:40.780Z,0
2017-12-16T00:28:21.306Z,0
2017-12-16T00:29:01.845Z,0
2017-12-16T00:29:42.377Z,0
2017-12-16T00:30:22.916Z,0
2017-12-16T00:31:03.432Z,0
2017-12-16T00:31:44.004Z,0
2017-12-16T00:32:24.508Z,0
2017-12-16T00:33:05.031Z,0
2017-12-16T00:33:45.546Z,0
2017-12-16T00:34:26.080Z,0
2017-12-16T00:35:06.583Z,0
2017-12-16T00:35:47.138Z,0
2017-12-16T00:36:27.657Z,0
2017-12-16T00:37:08.192Z,0
2017-12-16T00:37:48.724Z,0
2017-12-16T00:38:29.262Z,0
2017-12-16T00:39:09.795Z,0
2017-12-16T00:39:50.331Z,0
2017-12-16T00:40:30.869Z,0
2017-12-16T00:41:11.398Z,0
2017-12-16T00:41:51.941Z,0
2017-12-16T00:42:32.477Z,0
2017-12-16T00:43:13.013Z,0
2017-12-16T00:43:53.536Z,0
2017-12-16T00:44:34.056Z,0
2017-12-16T00:45:14.580Z,0
2017-12-16T00:45:55.103Z,0
2017-12-16T00:46:35.630Z,0
2017-12-16T00:47:16.171Z,0
2017-12-16T00:47:56.711Z,0
2017-12-16T00:48:37.222Z,0
2017-12-16T00:49:17.747Z,0
2017-12-16T00:49:58.300Z,0
2017-12-16T00:50:38.850Z,0
2017-12-16T00:51:19.376Z,0
2017-12-16T00:51:59.926Z,0
2017-12-16T00:52:40.439Z,0
2017-12-16T00:53:20.974Z,0
2017-12-16T00:54:01.490Z,0
2017-12-16T00:54:42.016Z,0
2017-12-16T00:55:22.548Z,0
2017-12-16T00:56:03.100Z,0
2017-12-16T00:56:43.614Z,0
2017-12-16T00:57:24.142Z,0
2017-12-16T00:58:04.671Z,0
2017-12-16T00:58:45.206Z,0
2017-12-16T00:59:25.741Z,0
2017-12-16T01:00:06.280Z,0
2017-12-16T01:00:46.804Z,0
2017-12-16T01:01:27.333Z,0
2017-12-16T01:02:07.864Z,0
2017-12-16T01:02:48.381Z,0
2017-12-16T01:03:28.897Z,0
2017-12-16T01:04:09.425Z,0
2017-12-16T01:04:49.960Z,0
2017-12-16T01:05:30.507Z,0
2017-12-16T01:06:11.028Z,0
2017-12-16T01:06:51.548Z,0
2017-12-16T01:07:32.063Z,0
2017-12-16T01:08:12.601Z,0
2017-12-16T01:08:53.130Z,0
2017-12-16T01:09:33.661Z,0
2017-12-16T01:10:14.181Z,0
2017-12-16T01:10:54.724Z,0
2017-12-16T01:11:35.267Z,0
2017-12-16T01:12:15.803Z,0
2017-12-16T01:12:56.351Z,0
2017-12-16T01:13:36.850Z,0
2017-12-16T01:14:17.381Z,0
2017-12-16T01:14:57.919Z,0
2017-12-16T01:15:38.446Z,0
2017-12-16T01:16:18.970Z,0
2017-12-16T01:16:59.497Z,0
2017-12-16T01:17:40.011Z,0
2017-12-16T01:18:20.555Z,0
2017-12-16T01:19:01.080Z,0
2017-12-16T01:19:41.601Z,0
2017-12-16T01:20:22.129Z,0
2017-12-16T01:21:02.659Z,0
2017-12-16T01:21:43.199Z,0
2017-12-16T01:22:23.739Z,0
2017-12-16T01:23:04.289Z,0
2017-12-16T01:23:44.828Z,0
2017-12-16T01:24:25.391Z,0
2017-12-16T01:25:05.915Z,0
2017-12-16T01:25:46.444Z,0
2017-12-16T01:26:26.971Z,0
2017-12-16T01:27:07.496Z,0
2017-12-16T01:27:48.051Z,0
2017-12-16T01:28:28.576Z,0
2017-12-16T01:29:09.093Z,0
2017-12-16T01:29:49.633Z,0
2017-12-16T01:30:30.164Z,0
2017-12-16T01:31:10.699Z,0
2017-12-16T01:31:51.248Z,0
2017-12-16T01:32:31.766Z,0
2017-12-16T01:33:12.369Z,0
2017-12-16T01:33:52.906Z,0
2017-12-16T01:34:33.420Z,0
2017-12-16T01:35:13.948Z,0
2017-12-16T01:35:54.518Z,0
2017-12-16T01:36:35.051Z,0
2017-12-16T01:37:15.596Z,0
2017-12-16T01:37:56.114Z,0
2017-12-16T01:38:36.636Z,0
2017-12-16T01:39:17.168Z,0
2017-12-16T01:39:57.697Z,0
2017-12-16T01:40:38.223Z,0
2017-12-16T01:41:18.761Z,0
2017-12-16T01:41:59.275Z,0
2017-12-16T01:42:39.803Z,0
2017-12-16T01:43:20.338Z,0
2017-12-16T01:44:00.913Z,0
2017-12-16T01:44:41.394Z,0
2017-12-16T01:45:21.924Z,0
2017-12-16T01:46:02.443Z,0
2017-12-16T01:46:42.975Z,0
2017-12-16T01:47:23.522Z,0
2017-12-16T01:48:04.073Z,0
2017-12-16T01:48:44.616Z,0
2017-12-16T01:49:25.149Z,0
2017-12-16T01:50:05.678Z,0
2017-12-16T01:50:46.208Z,0
2017-12-16T01:51:26.738Z,0
2017-12-16T01:52:07.278Z,0
2017-12-16T01:52:47.819Z,0
2017-12-16T01:53:28.333Z,0
2017-12-16T01:54:08.869Z,0
2017-12-16T01:54:49.403Z,0
2017-12-16T01:55:29.925Z,0
2017-12-16T01:56:10.467Z,0
2017-12-16T01:56:51.095Z,0
2017-12-16T01:57:31.623Z,0
2017-12-16T01:58:12.153Z,0
2017-12-16T01:58:52.682Z,0
2017-12-16T01:59:33.210Z,0
2017-12-16T02:00:13.730Z,0
2017-12-16T02:00:54.257Z,0
2017-12-16T02:01:34.829Z,0
2017-12-16T02:02:15.364Z,0
2017-12-16T02:02:55.866Z,0
2017-12-16T02:03:36.388Z,0
2017-12-16T02:04:16.919Z,0
2017-12-16T02:04:57.444Z,0
2017-12-16T02:05:37.978Z,0
2017-12-16T02:06:18.505Z,0
2017-12-16T02:06:59.034Z,0
2017-12-16T02:07:39.566Z,0
2017-12-16T02:08:20.096Z,0
2017-12-16T02:09:00.625Z,0
2017-12-16T02:09:41.156Z,0
2017-12-16T02:10:21.687Z,0
2017-12-16T02:11:02.222Z,0
2017-12-16T02:11:42.753Z,0
2017-12-16T02:12:23.277Z,0
2017-12-16T02:13:03.799Z,0
2017-12-16T02:13:44.335Z,0
2017-12-16T02:14:24.860Z,0
2017-12-16T02:15:05.399Z,0
2017-12-16T02:15:45.926Z,0
2017-12-16T02:16:26.464Z,0
2017-12-16T02:17:06.998Z,0
2017-12-16T02:17:47.507Z,0
2017-12-16T02:18:28.052Z,0
2017-12-16T02:19:08.564Z,0
2017-12-16T02:19:49.080Z,0
2017-12-16T02:20:29.615Z,0
2017-12-16T02:21:10.141Z,0
2017-12-16T02:21:50.668Z,0
2017-12-16T02:22:31.189Z,0
2017-12-16T02:23:11.720Z,0
2017-12-16T02:23:52.241Z,0
2017-12-16T02:24:32.753Z,0
2017-12-16T02:25:13.283Z,0
2017-12-16T02:25:53.809Z,0
2017-12-16T02:26:34.332Z,0
2017-12-16T02:27:14.851Z,0
2017-12-16T02:27:55.369Z,0
2017-12-16T02:28:35.877Z,0
2017-12-16T02:29:16.384Z,0
2017-12-16T02:29:56.920Z,0
2017-12-16T02:30:37.453Z,0
2017-12-16T02:31:17.985Z,0
2017-12-16T02:31:58.513Z,0
2017-12-16T02:32:39.040Z,0
2017-12-16T02:33:19.569Z,0
2017-12-16T02:34:00.087Z,0
2017-12-16T02:34:40.600Z,0
2017-12-16T02:35:21.128Z,0
2017-12-16T02:36:01.657Z,0
2017-12-16T02:36:42.188Z,0
2017-12-16T02:37:22.705Z,0
2017-12-16T02:38:03.234Z,0
2017-12-16T02:38:43.770Z,0
2017-12-16T02:39:24.306Z,0
2017-12-16T02:40:04.841Z,0
2017-12-16T02:40:45.374Z,0
2017-12-16T02:41:25.890Z,0
2017-12-16T02:42:06.423Z,0
2017-12-16T02:42:46.948Z,0
2017-12-16T02:43:27.477Z,0
2017-12-16T02:44:08.012Z,0
2017-12-16T02:44:48.543Z,0
2017-12-16T02:45:29.079Z,0
2017-12-16T02:46:09.602Z,0
2017-12-16T02:46:50.132Z,0
2017-12-16T02:47:30.671Z,0
2017-12-16T02:48:11.166Z,0
2017-12-16T02:48:51.707Z,0
2017-12-16T02:49:32.214Z,0
2017-12-16T02:50:12.741Z,0
2017-12-16T02:50:53.270Z,0
2017-12-16T02:51:33.808Z,0
2017-12-16T02:52:14.327Z,0
2017-12-16T02:52:54.857Z,0
2017-12-16T02:53:35.385Z,0
2017-12-16T02:54:15.919Z,0
2017-12-16T02:54:56.514Z,0
2017-12-16T02:55:37.068Z,0
2017-12-16T02:56:17.557Z,0
2017-12-16T02:56:58.092Z,0
2017-12-16T02:57:38.615Z,0
2017-12-16T02:58:19.151Z,0
2017-12-16T02:58:59.683Z,0
2017-12-16T02:59:40.228Z,0
2017-12-16T03:00:20.754Z,0
2017-12-16T03:01:01.292Z,0
2017-12-16T03:01:41.825Z,0
2017-12-16T03:02:22.360Z,0
2017-12-16T03:03:02.880Z,0
2017-12-16T03:03:43.424Z,0
2017-12-16T03:04:23.954Z,0
2017-12-16T03:05:04.476Z,0
2017-12-16T03:05:45.002Z,0
2017-12-16T03:06:25.607Z,0
2017-12-16T03:07:06.127Z,0
2017-12-16T03:07:46.665Z,0
2017-12-16T03:08:27.195Z,0
2017-12-16T03:09:07.721Z,0
2017-12-16T03:09:48.248Z,0
2017-12-16T03:10:28.771Z,0
2017-12-16T03:11:09.373Z,0
2017-12-16T03:11:49.900Z,0
2017-12-16T03:12:30.435Z,0
2017-12-16T03:13:10.968Z,0
2017-12-16T03:13:51.500Z,0
2017-12-16T03:14:32.032Z,0
2017-12-16T03:15:12.568Z,0
2017-12-16T03:15:53.070Z,0
2017-12-16T03:16:33.594Z,0
2017-12-16T03:17:14.124Z,0
2017-12-16T03:17:54.633Z,0
2017-12-16T03:18:35.163Z,0
2017-12-16T03:19:15.694Z,0
2017-12-16T03:19:56.225Z,0
2017-12-16T03:20:36.769Z,0
2017-12-16T03:21:17.300Z,0
2017-12-16T03:21:57.819Z,0
2017-12-16T03:22:38.350Z,0
2017-12-16T03:23:18.897Z,0
2017-12-16T03:23:59.415Z,0
2017-12-16T03:24:39.937Z,0
2017-12-16T03:25:20.477Z,0
2017-12-16T03:26:00.998Z,0
2017-12-16T03:26:41.539Z,0
2017-12-16T03:27:22.073Z,0
2017-12-16T03:28:02.604Z,0
2017-12-16T03:28:43.128Z,0
2017-12-16T03:29:23.654Z,0
2017-12-16T03:30:04.178Z,0
2017-12-16T03:30:44.715Z,0
2017-12-16T03:31:25.250Z,0
2017-12-16T03:32:05.773Z,0
2017-12-16T03:32:46.309Z,0
2017-12-16T03:33:26.840Z,0
2017-12-16T03:34:07.379Z,0
2017-12-16T03:34:47.908Z,0
2017-12-16T03:35:28.433Z,0
2017-12-16T03:36:08.964Z,0
2017-12-16T03:36:49.499Z,0
2017-12-16T03:37:30.037Z,0
2017-12-16T03:38:10.551Z,0
2017-12-16T03:38:51.083Z,0
2017-12-16T03:39:31.611Z,0
2017-12-16T03:40:12.155Z,0
2017-12-16T03:40:52.697Z,0
2017-12-16T03:41:33.201Z,0
2017-12-16T03:42:13.724Z,0
2017-12-16T03:42:54.267Z,0
2017-12-16T03:43:34.795Z,0
2017-12-16T03:44:15.352Z,0
2017-12-16T03:44:55.839Z,0
2017-12-16T03:45:36.362Z,0
2017-12-16T03:46:16.911Z,0
2017-12-16T03:46:57.503Z,0
2017-12-16T03:47:38.016Z,0
2017-12-16T03:48:18.579Z,0
2017-12-16T03:48:59.123Z,0
2017-12-16T03:49:39.686Z,0
2017-12-16T03:50:20.214Z,0
2017-12-16T03:51:00.756Z,0
2017-12-16T03:51:41.300Z,0
2017-12-16T03:52:21.848Z,0
2017-12-16T03:53:02.359Z,0
2017-12-16T03:53:42.865Z,0
2017-12-16T03:54:23.395Z,0
2017-12-16T03:55:03.921Z,0
2017-12-16T03:55:44.439Z,0
2017-12-16T03:56:24.979Z,0
2017-12-16T03:57:05.513Z,0
2017-12-16T03:57:46.060Z,0
2017-12-16T03:58:26.588Z,0
2017-12-16T03:59:07.107Z,0
2017-12-16T03:59:47.620Z,0
2017-12-16T04:00:28.160Z,0
2017-12-16T04:01:08.700Z,0
2017-12-16T04:01:49.207Z,0
2017-12-16T04:02:29.720Z,0
2017-12-16T04:03:10.256Z,0
2017-12-16T04:03:50.798Z,0
2017-12-16T04:04:31.319Z,0
2017-12-16T04:05:11.846Z,0
2017-12-16T04:05:52.373Z,0
2017-12-16T04:06:32.902Z,0
2017-12-16T04:07:13.440Z,0
2017-12-16T04:07:53.962Z,0
2017-12-16T04:08:34.490Z,0
2017-12-16T04:09:15.016Z,0
2017-12-16T04:09:55.572Z,0
2017-12-16T04:10:36.069Z,0
2017-12-16T04:11:16.577Z,0
2017-12-16T04:11:57.121Z,0
2017-12-16T04:12:37.667Z,0
2017-12-16T04:13:18.172Z,0
2017-12-16T04:13:58.725Z,0
2017-12-16T04:14:39.262Z,0
2017-12-16T04:15:19.812Z,0
2017-12-16T04:16:00.346Z,0
2017-12-16T04:16:40.865Z,0
2017-12-16T04:17:21.390Z,0
2017-12-16T04:18:01.911Z,0
2017-12-16T04:18:42.421Z,0
2017-12-16T04:19:22.956Z,0
2017-12-16T04:20:03.461Z,0
2017-12-16T04:20:43.980Z,0
2017-12-16T04:21:24.521Z,0
2017-12-16T04:22:05.056Z,0
2017-12-16T04:22:45.587Z,0
2017-12-16T04:23:26.103Z,0
2017-12-16T04:24:06.618Z,0
2017-12-16T04:24:47.139Z,0
2017-12-16T04:25:27.655Z,0
2017-12-16T04:26:08.177Z,0
2017-12-16T04:26:48.707Z,0
2017-12-16T04:27:29.227Z,0
2017-12-16T04:28:09.745Z,0
2017-12-16T04:28:50.395Z,0
2017-12-16T04:29:30.913Z,0
2017-12-16T04:30:11.449Z,0
2017-12-16T04:30:51.983Z,0
2017-12-16T04:31:32.515Z,0
2017-12-16T04:32:13.047Z,0
2017-12-16T04:32:53.568Z,0
2017-12-16T04:33:34.119Z,0
2017-12-16T04:34:14.642Z,0
2017-12-16T04:34:55.176Z,0
2017-12-16T04:35:35.708Z,0
2017-12-16T04:36:16.238Z,0
2017-12-16T04:36:56.769Z,0
2017-12-16T04:37:37.293Z,0
2017-12-16T04:38:17.824Z,0
2017-12-16T04:38:58.353Z,0
2017-12-16T04:39:38.872Z,0
2017-12-16T04:40:19.420Z,0
2017-12-16T04:40:59.947Z,0
2017-12-16T04:41:40.465Z,0
2017-12-16T04:42:20.987Z,0
2017-12-16T04:43:01.595Z,0
2017-12-16T04:43:42.128Z,0
2017-12-16T04:44:22.621Z,0
2017-12-16T04:45:03.128Z,0
2017-12-16T04:45:43.664Z,0
2017-12-16T04:46:24.190Z,0
2017-12-16T04:47:04.729Z,0
2017-12-16T04:47:45.261Z,0
2017-12-16T04:48:25.791Z,0
2017-12-16T04:49:06.296Z,0
2017-12-16T04:49:46.835Z,0
2017-12-16T04:50:27.376Z,0
2017-12-16T04:51:07.908Z,0
2017-12-16T04:51:48.442Z,0
2017-12-16T04:52:28.972Z,0
2017-12-16T04:53:09.499Z,0
2017-12-16T04:53:50.029Z,0
2017-12-16T04:54:30.703Z,0
2017-12-16T04:55:11.361Z,0
2017-12-16T04:55:51.906Z,0
2017-12-16T04:56:32.641Z,0
2017-12-16T04:57:13.205Z,0
2017-12-16T04:57:53.717Z,0
2017-12-16T04:58:34.241Z,0
2017-12-16T04:59:14.896Z,0
2017-12-16T04:59:55.468Z,0
2017-12-16T05:00:36.073Z,0
2017-12-16T05:01:16.642Z,0
2017-12-16T05:01:57.157Z,0
2017-12-16T05:02:37.660Z,0
2017-12-16T05:03:18.198Z,0
2017-12-16T05:03:58.790Z,0
2017-12-16T05:04:39.312Z,0
2017-12-16T05:05:19.936Z,0
2017-12-16T05:06:00.567Z,0
2017-12-16T05:06:41.099Z,0
2017-12-16T05:07:21.623Z,0
2017-12-16T05:08:02.187Z,0
2017-12-16T05:08:42.755Z,0
2017-12-16T05:09:23.346Z,0
2017-12-16T05:10:03.875Z,0
2017-12-16T05:10:44.398Z,0
2017-12-16T05:11:24.934Z,0
2017-12-16T05:12:05.459Z,0
2017-12-16T05:12:45.986Z,0
2017-12-16T05:13:26.620Z,0
2017-12-16T05:14:07.148Z,0
2017-12-16T05:14:47.734Z,0
2017-12-16T05:15:28.271Z,0
2017-12-16T05:16:08.843Z,0
2017-12-16T05:16:49.392Z,0
2017-12-16T05:17:30.297Z,0
2017-12-16T05:18:10.835Z,0
2017-12-16T05:18:51.391Z,0
2017-12-16T05:19:31.920Z,0
2017-12-16T05:20:12.542Z,0
2017-12-16T05:20:53.178Z,0
2017-12-16T05:21:33.790Z,0
2017-12-16T05:22:14.315Z,0
2017-12-16T05:22:54.842Z,0
2017-12-16T05:23:35.538Z,0
2017-12-16T05:24:16.003Z,0
2017-12-16T05:24:56.533Z,0
2017-12-16T05:25:37.224Z,0
2017-12-16T05:26:17.729Z,0
2017-12-16T05:26:58.266Z,0
2017-12-16T05:27:38.801Z,0
2017-12-16T05:28:19.367Z,0
2017-12-16T05:28:59.905Z,0
2017-12-16T05:29:40.434Z,0
2017-12-16T05:30:20.956Z,0
2017-12-16T05:31:01.476Z,0
2017-12-16T05:31:41.984Z,0
2017-12-16T05:32:22.517Z,0
2017-12-16T05:33:03.200Z,0
2017-12-16T05:33:43.680Z,0
2017-12-16T05:34:24.326Z,0
2017-12-16T05:35:04.949Z,0
2017-12-16T05:35:45.500Z,0
2017-12-16T05:36:25.993Z,0
2017-12-16T05:37:06.583Z,0
2017-12-16T05:37:47.121Z,0
2017-12-16T05:38:27.633Z,0
2017-12-16T05:39:08.236Z,0
2017-12-16T05:39:48.949Z,0
2017-12-16T05:40:29.430Z,0
2017-12-16T05:41:10.053Z,0
2017-12-16T05:41:50.596Z,0
2017-12-16T05:42:31.135Z,0
2017-12-16T05:43:11.712Z,0
2017-12-16T05:43:52.251Z,0
2017-12-16T05:44:32.827Z,0
2017-12-16T05:45:13.490Z,0
2017-12-16T05:45:54.094Z,0
2017-12-16T05:46:34.621Z,0
2017-12-16T05:47:15.294Z,0
2017-12-16T05:47:55.812Z,0
2017-12-16T05:48:36.400Z,0
2017-12-16T05:49:16.929Z,0
2017-12-16T05:49:57.463Z,0
2017-12-16T05:50:38.066Z,0
2017-12-16T05:51:18.597Z,0
2017-12-16T05:51:59.167Z,0
2017-12-16T05:52:39.723Z,0
2017-12-16T05:53:20.248Z,0
2017-12-16T05:54:00.780Z,0
2017-12-16T05:54:41.304Z,0
2017-12-16T05:55:21.927Z,0
2017-12-16T05:56:02.542Z,0
2017-12-16T05:56:43.064Z,0
2017-12-16T05:57:23.636Z,0
2017-12-16T05:58:04.271Z,0
2017-12-16T05:58:44.799Z,0
2017-12-16T05:59:25.312Z,0
2017-12-16T06:00:05.854Z,0
2017-12-16T06:00:46.471Z,0
2017-12-16T06:01:26.981Z,0
2017-12-16T06:02:07.556Z,0
2017-12-16T06:02:48.087Z,0
2017-12-16T06:03:28.627Z,0
2017-12-16T06:04:10.009Z,0
2017-12-16T06:04:50.545Z,0
2017-12-16T06:05:31.080Z,0
2017-12-16T06:06:11.615Z,0
2017-12-16T06:06:52.146Z,0
2017-12-16T06:07:32.673Z,0
2017-12-16T06:08:13.216Z,0
2017-12-16T06:08:53.704Z,0
2017-12-16T06:09:34.232Z,0
2017-12-16T06:10:14.819Z,0
2017-12-16T06:10:55.350Z,0
2017-12-16T06:11:35.871Z,0
2017-12-16T06:12:16.530Z,0
2017-12-16T06:12:57.055Z,0
2017-12-16T06:13:37.603Z,0
2017-12-16T06:14:18.090Z,0
2017-12-16T06:14:58.588Z,0
2017-12-16T06:15:39.115Z,0
2017-12-16T06:16:19.634Z,0
2017-12-16T06:17:00.169Z,0
2017-12-16T06:17:40.797Z,0
2017-12-16T06:18:21.322Z,0
2017-12-16T06:19:01.846Z,0
2017-12-16T06:19:42.406Z,0
2017-12-16T06:20:22.936Z,0
2017-12-16T06:21:03.607Z,0
2017-12-16T06:21:44.104Z,0
2017-12-16T06:22:24.605Z,0
2017-12-16T06:23:05.137Z,0
2017-12-16T06:23:45.788Z,0
2017-12-16T06:24:26.302Z,0
2017-12-16T06:25:06.815Z,0
2017-12-16T06:25:47.409Z,0
2017-12-16T06:26:27.899Z,0
2017-12-16T06:27:08.440Z,0
2017-12-16T06:27:48.982Z,0
2017-12-16T06:28:29.495Z,0
2017-12-16T06:29:10.011Z,0
2017-12-16T06:29:50.529Z,0
2017-12-16T06:30:31.064Z,0
2017-12-16T06:31:11.602Z,0
2017-12-16T06:31:52.120Z,0
2017-12-16T06:32:32.643Z,0
2017-12-16T06:33:13.266Z,0
2017-12-16T06:33:53.787Z,0
2017-12-16T06:34:34.320Z,0
2017-12-16T06:35:14.853Z,0
2017-12-16T06:35:55.388Z,0
2017-12-16T06:36:35.922Z,0
2017-12-16T06:37:16.520Z,0
2017-12-16T06:37:57.297Z,0
2017-12-16T06:38:37.883Z,0
2017-12-16T06:39:18.391Z,0
2017-12-16T06:39:58.920Z,0
2017-12-16T06:40:39.456Z,0
2017-12-16T06:41:19.987Z,0
2017-12-16T06:42:00.530Z,0
2017-12-16T06:42:41.063Z,0
2017-12-16T06:43:21.594Z,0
2017-12-16T06:44:02.129Z,0
2017-12-16T06:44:42.658Z,0
2017-12-16T06:45:23.204Z,0
2017-12-16T06:46:03.735Z,0
2017-12-16T06:46:44.245Z,0
2017-12-16T06:47:24.793Z,0
2017-12-16T06:48:05.313Z,0
2017-12-16T06:48:45.869Z,0
2017-12-16T06:49:26.400Z,0
2017-12-16T06:50:06.938Z,0
2017-12-16T06:50:47.440Z,0
2017-12-16T06:51:27.966Z,0
2017-12-16T06:52:08.487Z,0
2017-12-16T06:52:49.019Z,0
2017-12-16T06:53:29.550Z,0
2017-12-16T06:54:10.087Z,0
2017-12-16T06:54:50.620Z,0
2017-12-16T06:55:31.138Z,0
2017-12-16T06:56:11.678Z,0
2017-12-16T06:56:52.210Z,0
2017-12-16T06:57:32.738Z,0
2017-12-16T06:58:13.274Z,0
2017-12-16T06:58:53.802Z,0
2017-12-16T06:59:34.359Z,0
2017-12-16T07:00:14.889Z,0
2017-12-16T07:00:55.413Z,0
2017-12-16T07:01:35.942Z,0
2017-12-16T07:02:16.475Z,0
2017-12-16T07:02:57.015Z,0
2017-12-16T07:03:37.551Z,0
2017-12-16T07:04:18.085Z,0
2017-12-16T07:04:58.578Z,0
2017-12-16T07:05:39.118Z,0
2017-12-16T07:06:19.652Z,0
2017-12-16T07:07:00.340Z,0
2017-12-16T07:07:40.874Z,0
2017-12-16T07:08:21.420Z,0
2017-12-16T07:09:01.953Z,0
2017-12-16T07:09:42.490Z,0
2017-12-16T07:10:23.020Z,0
2017-12-16T07:11:03.541Z,0
2017-12-16T07:11:44.063Z,0
2017-12-16T07:12:24.603Z,0
2017-12-16T07:13:05.133Z,0
2017-12-16T07:13:45.658Z,0
2017-12-16T07:14:26.192Z,0
2017-12-16T07:15:06.711Z,0
2017-12-16T07:15:47.409Z,0
2017-12-16T07:16:28.093Z,0
2017-12-16T07:17:08.722Z,0
2017-12-16T07:17:49.515Z,0
2017-12-16T07:18:30.038Z,0
2017-12-16T07:19:10.566Z,0
2017-12-16T07:19:51.111Z,0
2017-12-16T07:20:31.622Z,0
2017-12-16T07:21:12.141Z,0
2017-12-16T07:21:52.659Z,0
2017-12-16T07:22:33.180Z,0
2017-12-16T07:23:13.724Z,0
2017-12-16T07:23:54.251Z,0
2017-12-16T07:24:34.771Z,0
2017-12-16T07:25:15.297Z,0
2017-12-16T07:25:55.812Z,0
2017-12-16T07:26:36.332Z,0
2017-12-16T07:27:16.854Z,0
2017-12-16T07:27:57.389Z,0
2017-12-16T07:28:37.902Z,0
2017-12-16T07:29:18.429Z,0
2017-12-16T07:29:58.949Z,0
2017-12-16T07:30:39.456Z,0
2017-12-16T07:31:19.978Z,0
2017-12-16T07:32:00.482Z,0
2017-12-16T07:32:41.021Z,0
2017-12-16T07:33:21.556Z,0
2017-12-16T07:34:02.190Z,0
2017-12-16T07:34:42.695Z,0
2017-12-16T07:35:23.218Z,0
2017-12-16T07:36:03.743Z,0
2017-12-16T07:36:44.240Z,0
2017-12-16T07:37:24.789Z,0
2017-12-16T07:38:05.302Z,0
2017-12-16T07:38:45.813Z,0
2017-12-16T07:39:26.339Z,0
2017-12-16T07:40:06.844Z,0
2017-12-16T07:40:47.368Z,0
2017-12-16T07:41:27.856Z,0
2017-12-16T07:42:08.392Z,0
2017-12-16T07:42:48.901Z,0
2017-12-16T07:43:29.397Z,0
2017-12-16T07:44:09.916Z,0
2017-12-16T07:44:50.431Z,0
2017-12-16T07:45:30.952Z,0
2017-12-16T07:46:11.460Z,0
2017-12-16T07:46:51.992Z,0
2017-12-16T07:47:32.507Z,0
2017-12-16T07:48:13.031Z,0
2017-12-16T07:48:53.569Z,0
2017-12-16T07:49:34.103Z,0
2017-12-16T07:50:14.618Z,0
2017-12-16T07:50:55.158Z,0
2017-12-16T07:51:35.680Z,0
2017-12-16T07:52:16.212Z,0
2017-12-16T07:52:56.735Z,0
2017-12-16T07:53:37.273Z,0
2017-12-16T07:54:17.808Z,0
2017-12-16T07:54:58.336Z,0
2017-12-16T07:55:38.860Z,0
2017-12-16T07:56:19.390Z,0
2017-12-16T07:56:59.917Z,5
2017-12-16T07:57:40.441Z,5
2017-12-16T07:58:20.969Z,5
2017-12-16T07:59:01.507Z,5
2017-12-16T07:59:42.024Z,5
2017-12-16T08:00:22.539Z,5
2017-12-16T08:01:03.049Z,5
2017-12-16T08:01:43.558Z,5
2017-12-16T08:02:24.075Z,5
2017-12-16T08:03:04.558Z,5
2017-12-16T08:03:45.087Z,5
2017-12-16T08:04:25.666Z,5
2017-12-16T08:05:06.187Z,5
2017-12-16T08:05:46.716Z,5
2017-12-16T08:06:27.229Z,5
2017-12-16T08:07:07.743Z,5
2017-12-16T08:07:48.251Z,5
2017-12-16T08:08:28.767Z,5
2017-12-16T08:09:09.294Z,5
2017-12-16T08:09:49.826Z,5
2017-12-16T08:10:30.332Z,5
2017-12-16T08:11:10.862Z,5
2017-12-16T08:11:51.401Z,5
2017-12-16T08:12:31.929Z,5
2017-12-16T08:13:12.448Z,0
2017-12-16T08:13:52.980Z,0
2017-12-16T08:14:33.513Z,5
2017-12-16T08:15:14.035Z,5
2017-12-16T08:15:54.592Z,5
2017-12-16T08:16:35.118Z,5
2017-12-16T08:17:15.647Z,5
2017-12-16T08:17:56.223Z,5
2017-12-16T08:18:36.701Z,5
2017-12-16T08:19:17.214Z,5
2017-12-16T08:19:57.716Z,5
2017-12-16T08:20:38.241Z,5
2017-12-16T08:21:18.772Z,5
2017-12-16T08:21:59.319Z,5
2017-12-16T08:22:39.798Z,10
2017-12-16T08:23:20.333Z,5
2017-12-16T08:24:00.870Z,10
2017-12-16T08:24:41.399Z,5
2017-12-16T08:25:21.926Z,10
2017-12-16T08:26:02.438Z,5
2017-12-16T08:26:42.969Z,5
2017-12-16T08:27:23.502Z,10
2017-12-16T08:28:03.994Z,10
2017-12-16T08:28:44.519Z,15
2017-12-16T08:29:25.044Z,15
2017-12-16T08:30:05.606Z,15
2017-12-16T08:30:46.141Z,15
2017-12-16T08:31:26.660Z,15
2017-12-16T08:32:07.174Z,15
2017-12-16T08:32:47.703Z,15
2017-12-16T08:33:28.231Z,20
2017-12-16T08:34:08.759Z,20
2017-12-16T08:34:49.294Z,25
2017-12-16T08:35:29.816Z,20
2017-12-16T08:36:10.324Z,20
2017-12-16T08:36:50.833Z,20
2017-12-16T08:37:31.353Z,20
2017-12-16T08:38:11.870Z,15
2017-12-16T08:38:52.396Z,15
2017-12-16T08:39:32.911Z,10
2017-12-16T08:40:13.419Z,10
2017-12-16T08:40:53.950Z,5
2017-12-16T08:41:34.465Z,5
2017-12-16T08:42:14.994Z,10
2017-12-16T08:42:55.512Z,10
2017-12-16T08:43:36.029Z,10
2017-12-16T08:44:16.560Z,10
2017-12-16T08:44:57.081Z,10
2017-12-16T08:45:37.621Z,10
2017-12-16T08:46:18.141Z,5
2017-12-16T08:46:58.681Z,10
2017-12-16T08:47:39.212Z,10
2017-12-16T08:48:19.741Z,10
2017-12-16T08:49:00.249Z,10
2017-12-16T08:49:40.786Z,15
2017-12-16T08:50:21.309Z,10
2017-12-16T08:51:01.832Z,10
2017-12-16T08:51:42.360Z,15
2017-12-16T08:52:22.894Z,10
2017-12-16T08:53:03.430Z,15
2017-12-16T08:53:43.970Z,15
2017-12-16T08:54:24.493Z,15
2017-12-16T08:55:05.028Z,25
2017-12-16T08:55:45.549Z,30
2017-12-16T08:56:26.078Z,40
2017-12-16T08:57:06.617Z,55
2017-12-16T08:57:47.145Z,60
2017-12-16T08:58:27.684Z,55
2017-12-16T08:59:08.199Z,40
2017-12-16T08:59:48.755Z,30
2017-12-16T09:00:29.288Z,30
2017-12-16T09:01:09.820Z,25
2017-12-16T09:01:50.360Z,20
2017-12-16T09:02:30.891Z,25
2017-12-16T09:03:11.426Z,20
2017-12-16T09:03:51.959Z,20
2017-12-16T09:04:32.491Z,20
2017-12-16T09:05:13.032Z,30
2017-12-16T09:05:53.572Z,30
2017-12-16T09:06:34.102Z,30
2017-12-16T09:07:14.618Z,30
2017-12-16T09:07:55.193Z,30
2017-12-16T09:08:35.721Z,30
2017-12-16T09:09:16.260Z,30
2017-12-16T09:09:56.793Z,30
2017-12-16T09:10:37.300Z,35
2017-12-16T09:11:17.894Z,35
2017-12-16T09:11:58.425Z,30
2017-12-16T09:12:38.957Z,30
2017-12-16T09:13:19.475Z,30
2017-12-16T09:14:00.005Z,30
2017-12-16T09:14:40.542Z,35
2017-12-16T09:15:21.071Z,35
2017-12-16T09:16:01.724Z,35
2017-12-16T09:16:42.290Z,35
2017-12-16T09:17:22.819Z,35
2017-12-16T09:18:03.355Z,30
2017-12-16T09:18:43.904Z,25
2017-12-16T09:19:24.432Z,30
2017-12-16T09:20:04.961Z,30
2017-12-16T09:20:45.448Z,30
2017-12-16T09:21:25.968Z,35
2017-12-16T09:22:06.536Z,40
2017-12-16T09:22:47.069Z,40
2017-12-16T09:23:27.602Z,50
2017-12-16T09:24:08.115Z,50
2017-12-16T09:24:48.643Z,50
2017-12-16T09:25:29.179Z,45
2017-12-16T09:26:09.721Z,40
2017-12-16T09:26:50.370Z,40
2017-12-16T09:27:30.880Z,50
2017-12-16T09:28:11.414Z,55
2017-12-16T09:28:51.941Z,65
2017-12-16T09:29:32.464Z,60
2017-12-16T09:30:13.014Z,45
2017-12-16T09:30:53.560Z,40
2017-12-16T09:31:34.060Z,35
2017-12-16T09:32:14.572Z,30
2017-12-16T09:32:55.131Z,25
2017-12-16T09:33:35.615Z,25
2017-12-16T09:34:16.124Z,25
2017-12-16T09:34:56.658Z,20
2017-12-16T09:35:37.170Z,15
2017-12-16T09:36:17.766Z,20
2017-12-16T09:36:58.225Z,20
2017-12-16T09:37:38.759Z,35
2017-12-16T09:38:19.289Z,40
2017-12-16T09:38:59.805Z,45
2017-12-16T09:39:40.325Z,50
2017-12-16T09:40:20.870Z,50
2017-12-16T09:41:01.433Z,50
2017-12-16T09:41:41.916Z,45
2017-12-16T09:42:22.425Z,35
2017-12-16T09:43:02.968Z,30
2017-12-16T09:43:43.494Z,30
2017-12-16T09:46:12.919Z,35
2017-12-16T09:46:53.459Z,30
2017-12-16T09:47:33.998Z,35
2017-12-16T09:48:14.527Z,45
2017-12-16T09:48:55.056Z,50
2017-12-16T09:49:35.587Z,55
2017-12-16T09:50:16.117Z,55
2017-12-16T09:50:56.658Z,50
2017-12-16T09:51:37.175Z,60
2017-12-16T09:52:17.700Z,80
2017-12-16T09:52:58.240Z,90
2017-12-16T09:53:38.780Z,135
2017-12-16T09:54:19.316Z,140
2017-12-16T09:54:59.838Z,175
2017-12-16T09:55:40.365Z,190
2017-12-16T09:56:20.896Z,155
2017-12-16T09:57:01.432Z,120
2017-12-16T09:57:41.966Z,125
2017-12-16T09:58:22.479Z,165